sensor_id;sensor_type;location;lat;lon;timestamp;P1;durP1;ratioP1;P2;durP2;ratioP2
29352;SDS011;16344;50.364;8.944;2023-04-30T00:02:12;29.25;;;18.35;;
29352;SDS011;16344;50.364;8.944;2023-04-30T00:04:38;38.28;;;18.95;;
29352;SDS011;16344;50.364;8.944;2023-04-30T00:07:03;32.05;;;19.05;;
29352;SDS011;16344;50.364;8.944;2023-04-30T00:09:29;32.13;;;19.67;;
29352;SDS011;16344;50.364;8.944;2023-04-30T00:11:54;32.25;;;20.63;;
29352;SDS011;16344;50.364;8.944;2023-04-30T00:14:20;34.78;;;21.02;;
29352;SDS011;16344;50.364;8.944;2023-04-30T00:16:45;33.88;;;21.38;;
29352;SDS011;16344;50.364;8.944;2023-04-30T00:19:11;36.55;;;21.80;;
29352;SDS011;16344;50.364;8.944;2023-04-30T00:21:36;41.25;;;21.45;;
29352;SDS011;16344;50.364;8.944;2023-04-30T00:24:02;37.80;;;21.60;;
29352;SDS011;16344;50.364;8.944;2023-04-30T00:26:28;39.03;;;21.98;;
29352;SDS011;16344;50.364;8.944;2023-04-30T00:28:53;38.50;;;22.00;;
29352;SDS011;16344;50.364;8.944;2023-04-30T00:31:20;34.58;;;21.13;;
29352;SDS011;16344;50.364;8.944;2023-04-30T00:33:45;37.15;;;21.48;;
29352;SDS011;16344;50.364;8.944;2023-04-30T00:36:11;32.75;;;21.02;;
29352;SDS011;16344;50.364;8.944;2023-04-30T00:38:36;39.65;;;22.25;;
29352;SDS011;16344;50.364;8.944;2023-04-30T00:41:02;37.92;;;23.45;;
29352;SDS011;16344;50.364;8.944;2023-04-30T00:43:28;37.50;;;22.15;;
29352;SDS011;16344;50.364;8.944;2023-04-30T00:45:54;43.28;;;23.63;;
29352;SDS011;16344;50.364;8.944;2023-04-30T00:48:19;38.83;;;23.58;;
29352;SDS011;16344;50.364;8.944;2023-04-30T00:50:45;37.53;;;24.15;;
29352;SDS011;16344;50.364;8.944;2023-04-30T00:53:11;47.22;;;25.25;;
29352;SDS011;16344;50.364;8.944;2023-04-30T00:55:37;42.40;;;25.20;;
29352;SDS011;16344;50.364;8.944;2023-04-30T00:58:04;40.47;;;23.67;;
29352;SDS011;16344;50.364;8.944;2023-04-30T01:00:31;39.55;;;24.65;;
29352;SDS011;16344;50.364;8.944;2023-04-30T01:02:58;39.50;;;24.20;;
29352;SDS011;16344;50.364;8.944;2023-04-30T01:05:24;36.75;;;23.30;;
29352;SDS011;16344;50.364;8.944;2023-04-30T01:07:50;37.35;;;23.52;;
29352;SDS011;16344;50.364;8.944;2023-04-30T01:10:16;42.28;;;24.85;;
29352;SDS011;16344;50.364;8.944;2023-04-30T01:15:37;40.03;;;24.15;;
29352;SDS011;16344;50.364;8.944;2023-04-30T01:18:16;40.40;;;25.58;;
29352;SDS011;16344;50.364;8.944;2023-04-30T01:20:53;37.88;;;25.08;;
29352;SDS011;16344;50.364;8.944;2023-04-30T01:23:27;50.38;;;25.00;;
29352;SDS011;16344;50.364;8.944;2023-04-30T01:28:29;46.97;;;26.63;;
29352;SDS011;16344;50.364;8.944;2023-04-30T01:30:56;41.35;;;23.50;;
29352;SDS011;16344;50.364;8.944;2023-04-30T01:33:22;38.53;;;24.05;;
29352;SDS011;16344;50.364;8.944;2023-04-30T01:39:01;44.95;;;25.25;;
29352;SDS011;16344;50.364;8.944;2023-04-30T01:41:56;52.70;;;25.45;;
29352;SDS011;16344;50.364;8.944;2023-04-30T01:44:36;46.50;;;26.60;;
29352;SDS011;16344;50.364;8.944;2023-04-30T01:50:37;49.50;;;26.60;;
29352;SDS011;16344;50.364;8.944;2023-04-30T01:53:12;47.42;;;27.17;;
29352;SDS011;16344;50.364;8.944;2023-04-30T01:55:54;44.35;;;27.08;;
29352;SDS011;16344;50.364;8.944;2023-04-30T01:58:23;43.53;;;28.70;;
29352;SDS011;16344;50.364;8.944;2023-04-30T02:00:49;48.20;;;28.15;;
29352;SDS011;16344;50.364;8.944;2023-04-30T02:03:16;48.60;;;29.05;;
29352;SDS011;16344;50.364;8.944;2023-04-30T02:05:41;51.55;;;27.63;;
29352;SDS011;16344;50.364;8.944;2023-04-30T02:08:07;45.75;;;27.67;;
29352;SDS011;16344;50.364;8.944;2023-04-30T02:10:32;46.30;;;26.80;;
29352;SDS011;16344;50.364;8.944;2023-04-30T02:12:58;43.00;;;26.08;;
29352;SDS011;16344;50.364;8.944;2023-04-30T02:15:23;47.50;;;28.05;;
29352;SDS011;16344;50.364;8.944;2023-04-30T02:17:49;41.75;;;26.67;;
29352;SDS011;16344;50.364;8.944;2023-04-30T02:20:15;46.28;;;28.10;;
29352;SDS011;16344;50.364;8.944;2023-04-30T02:22:40;43.83;;;27.63;;
29352;SDS011;16344;50.364;8.944;2023-04-30T02:25:06;39.50;;;25.77;;
29352;SDS011;16344;50.364;8.944;2023-04-30T02:27:32;47.10;;;28.45;;
29352;SDS011;16344;50.364;8.944;2023-04-30T02:29:58;48.92;;;27.33;;
29352;SDS011;16344;50.364;8.944;2023-04-30T02:32:24;59.97;;;25.85;;
29352;SDS011;16344;50.364;8.944;2023-04-30T02:34:49;53.40;;;28.42;;
29352;SDS011;16344;50.364;8.944;2023-04-30T02:37:15;47.80;;;27.77;;
29352;SDS011;16344;50.364;8.944;2023-04-30T02:39:41;41.30;;;28.05;;
29352;SDS011;16344;50.364;8.944;2023-04-30T02:42:07;46.50;;;28.88;;
29352;SDS011;16344;50.364;8.944;2023-04-30T02:44:33;43.97;;;25.13;;
29352;SDS011;16344;50.364;8.944;2023-04-30T02:46:59;47.78;;;25.40;;
29352;SDS011;16344;50.364;8.944;2023-04-30T02:49:24;47.97;;;27.25;;
29352;SDS011;16344;50.364;8.944;2023-04-30T02:51:50;47.58;;;27.05;;
29352;SDS011;16344;50.364;8.944;2023-04-30T02:54:16;51.40;;;28.70;;
29352;SDS011;16344;50.364;8.944;2023-04-30T02:56:42;45.85;;;27.02;;
29352;SDS011;16344;50.364;8.944;2023-04-30T02:59:08;46.95;;;25.95;;
29352;SDS011;16344;50.364;8.944;2023-04-30T03:01:34;47.03;;;26.90;;
29352;SDS011;16344;50.364;8.944;2023-04-30T03:03:59;49.10;;;28.45;;
29352;SDS011;16344;50.364;8.944;2023-04-30T03:06:27;47.50;;;28.17;;
29352;SDS011;16344;50.364;8.944;2023-04-30T03:08:53;44.08;;;27.35;;
29352;SDS011;16344;50.364;8.944;2023-04-30T03:11:18;42.47;;;26.13;;
29352;SDS011;16344;50.364;8.944;2023-04-30T03:13:45;46.53;;;28.67;;
29352;SDS011;16344;50.364;8.944;2023-04-30T03:16:13;42.58;;;27.10;;
29352;SDS011;16344;50.364;8.944;2023-04-30T03:18:39;43.70;;;24.98;;
29352;SDS011;16344;50.364;8.944;2023-04-30T03:21:04;48.35;;;27.52;;
29352;SDS011;16344;50.364;8.944;2023-04-30T03:23:30;45.58;;;26.55;;
29352;SDS011;16344;50.364;8.944;2023-04-30T03:25:55;43.50;;;25.63;;
29352;SDS011;16344;50.364;8.944;2023-04-30T03:28:21;42.10;;;25.13;;
29352;SDS011;16344;50.364;8.944;2023-04-30T03:30:46;42.17;;;26.13;;
29352;SDS011;16344;50.364;8.944;2023-04-30T03:33:12;43.15;;;24.42;;
29352;SDS011;16344;50.364;8.944;2023-04-30T03:35:37;44.38;;;25.52;;
29352;SDS011;16344;50.364;8.944;2023-04-30T03:38:03;41.58;;;23.95;;
29352;SDS011;16344;50.364;8.944;2023-04-30T03:40:28;45.85;;;24.48;;
29352;SDS011;16344;50.364;8.944;2023-04-30T03:42:54;36.30;;;22.55;;
29352;SDS011;16344;50.364;8.944;2023-04-30T03:45:19;38.33;;;24.02;;
29352;SDS011;16344;50.364;8.944;2023-04-30T03:47:45;41.67;;;23.58;;
29352;SDS011;16344;50.364;8.944;2023-04-30T03:50:11;34.60;;;20.55;;
29352;SDS011;16344;50.364;8.944;2023-04-30T03:52:37;49.35;;;22.25;;
29352;SDS011;16344;50.364;8.944;2023-04-30T03:55:03;39.85;;;20.60;;
29352;SDS011;16344;50.364;8.944;2023-04-30T03:57:29;37.25;;;19.75;;
29352;SDS011;16344;50.364;8.944;2023-04-30T03:59:55;37.03;;;19.80;;
29352;SDS011;16344;50.364;8.944;2023-04-30T04:02:20;35.00;;;20.15;;
29352;SDS011;16344;50.364;8.944;2023-04-30T04:04:46;36.83;;;18.05;;
29352;SDS011;16344;50.364;8.944;2023-04-30T04:07:12;28.08;;;17.02;;
29352;SDS011;16344;50.364;8.944;2023-04-30T04:09:37;34.67;;;17.10;;
29352;SDS011;16344;50.364;8.944;2023-04-30T04:12:03;32.60;;;17.13;;
29352;SDS011;16344;50.364;8.944;2023-04-30T04:14:29;31.52;;;16.90;;
29352;SDS011;16344;50.364;8.944;2023-04-30T04:16:55;29.55;;;16.88;;
29352;SDS011;16344;50.364;8.944;2023-04-30T04:19:22;30.60;;;17.70;;
29352;SDS011;16344;50.364;8.944;2023-04-30T04:21:47;33.55;;;16.30;;
29352;SDS011;16344;50.364;8.944;2023-04-30T04:24:13;29.02;;;15.95;;
29352;SDS011;16344;50.364;8.944;2023-04-30T04:26:39;29.15;;;15.60;;
29352;SDS011;16344;50.364;8.944;2023-04-30T04:29:05;28.00;;;14.73;;
29352;SDS011;16344;50.364;8.944;2023-04-30T04:31:32;33.22;;;17.05;;
29352;SDS011;16344;50.364;8.944;2023-04-30T04:33:58;28.67;;;16.35;;
29352;SDS011;16344;50.364;8.944;2023-04-30T04:36:25;25.15;;;15.13;;
29352;SDS011;16344;50.364;8.944;2023-04-30T04:38:52;30.90;;;15.70;;
29352;SDS011;16344;50.364;8.944;2023-04-30T04:41:27;32.85;;;15.32;;
29352;SDS011;16344;50.364;8.944;2023-04-30T04:43:53;32.80;;;14.35;;
29352;SDS011;16344;50.364;8.944;2023-04-30T04:46:18;24.02;;;13.43;;
29352;SDS011;16344;50.364;8.944;2023-04-30T04:48:44;22.67;;;13.00;;
29352;SDS011;16344;50.364;8.944;2023-04-30T04:51:10;21.63;;;12.15;;
29352;SDS011;16344;50.364;8.944;2023-04-30T04:53:36;17.83;;;11.63;;
29352;SDS011;16344;50.364;8.944;2023-04-30T04:56:02;20.45;;;12.30;;
29352;SDS011;16344;50.364;8.944;2023-04-30T04:58:28;22.85;;;11.77;;
29352;SDS011;16344;50.364;8.944;2023-04-30T05:00:53;22.45;;;11.18;;
29352;SDS011;16344;50.364;8.944;2023-04-30T05:03:19;19.30;;;11.05;;
29352;SDS011;16344;50.364;8.944;2023-04-30T05:05:45;19.80;;;10.23;;
29352;SDS011;16344;50.364;8.944;2023-04-30T05:08:10;24.60;;;10.05;;
29352;SDS011;16344;50.364;8.944;2023-04-30T05:10:36;19.17;;;10.52;;
29352;SDS011;16344;50.364;8.944;2023-04-30T05:13:02;18.50;;;9.80;;
29352;SDS011;16344;50.364;8.944;2023-04-30T05:15:27;16.45;;;9.48;;
29352;SDS011;16344;50.364;8.944;2023-04-30T05:17:53;15.73;;;9.25;;
29352;SDS011;16344;50.364;8.944;2023-04-30T05:20:19;12.05;;;8.55;;
29352;SDS011;16344;50.364;8.944;2023-04-30T05:22:44;15.23;;;9.65;;
29352;SDS011;16344;50.364;8.944;2023-04-30T05:25:10;12.85;;;8.65;;
29352;SDS011;16344;50.364;8.944;2023-04-30T05:27:35;15.35;;;7.85;;
29352;SDS011;16344;50.364;8.944;2023-04-30T05:30:01;13.80;;;7.90;;
29352;SDS011;16344;50.364;8.944;2023-04-30T05:32:27;15.88;;;7.82;;
29352;SDS011;16344;50.364;8.944;2023-04-30T05:34:53;14.77;;;7.70;;
29352;SDS011;16344;50.364;8.944;2023-04-30T05:37:18;12.93;;;8.25;;
29352;SDS011;16344;50.364;8.944;2023-04-30T05:39:46;10.98;;;6.75;;
29352;SDS011;16344;50.364;8.944;2023-04-30T05:42:12;14.52;;;7.10;;
29352;SDS011;16344;50.364;8.944;2023-04-30T05:44:37;13.77;;;7.78;;
29352;SDS011;16344;50.364;8.944;2023-04-30T05:47:03;9.52;;;7.10;;
29352;SDS011;16344;50.364;8.944;2023-04-30T05:49:28;13.88;;;7.32;;
29352;SDS011;16344;50.364;8.944;2023-04-30T05:51:54;14.57;;;6.40;;
29352;SDS011;16344;50.364;8.944;2023-04-30T05:54:19;10.40;;;5.97;;
29352;SDS011;16344;50.364;8.944;2023-04-30T05:56:45;10.88;;;6.70;;
29352;SDS011;16344;50.364;8.944;2023-04-30T05:59:10;13.63;;;6.60;;
29352;SDS011;16344;50.364;8.944;2023-04-30T06:01:36;9.45;;;5.97;;
29352;SDS011;16344;50.364;8.944;2023-04-30T06:04:02;26.23;;;6.38;;
29352;SDS011;16344;50.364;8.944;2023-04-30T06:06:28;9.65;;;5.50;;
29352;SDS011;16344;50.364;8.944;2023-04-30T06:08:55;7.82;;;5.47;;
29352;SDS011;16344;50.364;8.944;2023-04-30T06:11:21;15.35;;;5.25;;
29352;SDS011;16344;50.364;8.944;2023-04-30T06:13:46;11.88;;;5.60;;
29352;SDS011;16344;50.364;8.944;2023-04-30T06:16:13;12.18;;;5.72;;
29352;SDS011;16344;50.364;8.944;2023-04-30T06:18:38;13.98;;;7.38;;
29352;SDS011;16344;50.364;8.944;2023-04-30T06:21:04;20.35;;;11.02;;
29352;SDS011;16344;50.364;8.944;2023-04-30T06:23:29;24.45;;;12.13;;
29352;SDS011;16344;50.364;8.944;2023-04-30T06:25:55;19.15;;;12.70;;
29352;SDS011;16344;50.364;8.944;2023-04-30T06:28:21;20.98;;;13.13;;
29352;SDS011;16344;50.364;8.944;2023-04-30T06:30:46;22.00;;;12.75;;
29352;SDS011;16344;50.364;8.944;2023-04-30T06:33:12;18.85;;;12.77;;
29352;SDS011;16344;50.364;8.944;2023-04-30T06:35:37;19.08;;;13.15;;
29352;SDS011;16344;50.364;8.944;2023-04-30T06:38:04;23.15;;;13.63;;
29352;SDS011;16344;50.364;8.944;2023-04-30T06:40:29;22.10;;;14.43;;
29352;SDS011;16344;50.364;8.944;2023-04-30T06:42:55;23.30;;;13.00;;
29352;SDS011;16344;50.364;8.944;2023-04-30T06:45:20;21.90;;;13.70;;
29352;SDS011;16344;50.364;8.944;2023-04-30T06:47:46;23.58;;;13.02;;
29352;SDS011;16344;50.364;8.944;2023-04-30T06:50:12;22.02;;;12.63;;
29352;SDS011;16344;50.364;8.944;2023-04-30T06:52:39;18.45;;;13.20;;
29352;SDS011;16344;50.364;8.944;2023-04-30T06:55:05;20.35;;;11.32;;
29352;SDS011;16344;50.364;8.944;2023-04-30T06:57:31;18.73;;;12.63;;
29352;SDS011;16344;50.364;8.944;2023-04-30T06:59:57;21.48;;;14.27;;
29352;SDS011;16344;50.364;8.944;2023-04-30T07:02:22;17.38;;;12.32;;
29352;SDS011;16344;50.364;8.944;2023-04-30T07:04:48;27.52;;;14.73;;
29352;SDS011;16344;50.364;8.944;2023-04-30T07:07:13;19.58;;;12.63;;
29352;SDS011;16344;50.364;8.944;2023-04-30T07:09:39;18.27;;;12.95;;
29352;SDS011;16344;50.364;8.944;2023-04-30T07:12:05;20.63;;;12.68;;
29352;SDS011;16344;50.364;8.944;2023-04-30T07:14:30;20.88;;;13.98;;
29352;SDS011;16344;50.364;8.944;2023-04-30T07:16:56;19.38;;;12.23;;
29352;SDS011;16344;50.364;8.944;2023-04-30T07:19:21;25.33;;;11.88;;
29352;SDS011;16344;50.364;8.944;2023-04-30T07:21:49;18.55;;;11.45;;
29352;SDS011;16344;50.364;8.944;2023-04-30T07:24:14;18.23;;;11.57;;
29352;SDS011;16344;50.364;8.944;2023-04-30T07:26:40;14.55;;;10.95;;
29352;SDS011;16344;50.364;8.944;2023-04-30T07:29:06;16.13;;;11.55;;
29352;SDS011;16344;50.364;8.944;2023-04-30T07:31:32;19.17;;;10.63;;
29352;SDS011;16344;50.364;8.944;2023-04-30T07:33:58;13.68;;;5.57;;
29352;SDS011;16344;50.364;8.944;2023-04-30T07:36:23;8.82;;;3.10;;
29352;SDS011;16344;50.364;8.944;2023-04-30T07:38:51;17.33;;;5.20;;
29352;SDS011;16344;50.364;8.944;2023-04-30T07:41:17;5.18;;;3.08;;
29352;SDS011;16344;50.364;8.944;2023-04-30T07:43:42;5.90;;;3.83;;
29352;SDS011;16344;50.364;8.944;2023-04-30T07:46:08;7.82;;;3.88;;
29352;SDS011;16344;50.364;8.944;2023-04-30T07:48:33;8.98;;;3.65;;
29352;SDS011;16344;50.364;8.944;2023-04-30T07:50:59;5.90;;;3.00;;
29352;SDS011;16344;50.364;8.944;2023-04-30T07:53:25;8.18;;;3.85;;
29352;SDS011;16344;50.364;8.944;2023-04-30T07:55:50;7.53;;;3.53;;
29352;SDS011;16344;50.364;8.944;2023-04-30T07:58:16;12.60;;;4.15;;
29352;SDS011;16344;50.364;8.944;2023-04-30T08:00:41;8.98;;;3.38;;
29352;SDS011;16344;50.364;8.944;2023-04-30T08:03:07;13.02;;;3.70;;
29352;SDS011;16344;50.364;8.944;2023-04-30T08:05:32;10.88;;;3.88;;
29352;SDS011;16344;50.364;8.944;2023-04-30T08:07:58;7.28;;;3.75;;
29352;SDS011;16344;50.364;8.944;2023-04-30T08:10:24;5.53;;;2.88;;
29352;SDS011;16344;50.364;8.944;2023-04-30T08:12:50;5.25;;;2.67;;
29352;SDS011;16344;50.364;8.944;2023-04-30T08:15:17;5.88;;;2.45;;
29352;SDS011;16344;50.364;8.944;2023-04-30T08:17:45;6.78;;;2.25;;
29352;SDS011;16344;50.364;8.944;2023-04-30T08:20:12;8.50;;;3.10;;
29352;SDS011;16344;50.364;8.944;2023-04-30T08:22:38;6.30;;;2.90;;
29352;SDS011;16344;50.364;8.944;2023-04-30T08:25:04;5.32;;;3.65;;
29352;SDS011;16344;50.364;8.944;2023-04-30T08:27:30;10.55;;;3.75;;
29352;SDS011;16344;50.364;8.944;2023-04-30T08:29:56;7.13;;;3.92;;
29352;SDS011;16344;50.364;8.944;2023-04-30T08:32:22;14.63;;;4.90;;
29352;SDS011;16344;50.364;8.944;2023-04-30T08:34:47;7.82;;;4.93;;
29352;SDS011;16344;50.364;8.944;2023-04-30T08:37:13;8.38;;;4.45;;
29352;SDS011;16344;50.364;8.944;2023-04-30T08:39:39;13.52;;;5.93;;
29352;SDS011;16344;50.364;8.944;2023-04-30T08:42:07;8.95;;;5.40;;
29352;SDS011;16344;50.364;8.944;2023-04-30T08:44:33;6.68;;;4.47;;
29352;SDS011;16344;50.364;8.944;2023-04-30T08:47:01;8.55;;;4.75;;
29352;SDS011;16344;50.364;8.944;2023-04-30T08:49:28;8.30;;;5.15;;
29352;SDS011;16344;50.364;8.944;2023-04-30T08:51:56;7.88;;;4.30;;
29352;SDS011;16344;50.364;8.944;2023-04-30T08:54:24;11.32;;;4.60;;
29352;SDS011;16344;50.364;8.944;2023-04-30T08:56:51;8.32;;;3.65;;
29352;SDS011;16344;50.364;8.944;2023-04-30T08:59:17;8.00;;;3.88;;
29352;SDS011;16344;50.364;8.944;2023-04-30T09:01:42;6.50;;;4.18;;
29352;SDS011;16344;50.364;8.944;2023-04-30T09:04:08;7.28;;;4.55;;
29352;SDS011;16344;50.364;8.944;2023-04-30T09:06:33;15.35;;;3.67;;
29352;SDS011;16344;50.364;8.944;2023-04-30T09:09:07;3.53;;;2.08;;
29352;SDS011;16344;50.364;8.944;2023-04-30T09:11:37;3.85;;;1.60;;
29352;SDS011;16344;50.364;8.944;2023-04-30T09:14:03;6.47;;;2.47;;
29352;SDS011;16344;50.364;8.944;2023-04-30T09:16:30;5.60;;;2.78;;
29352;SDS011;16344;50.364;8.944;2023-04-30T09:19:22;3.28;;;1.90;;
29352;SDS011;16344;50.364;8.944;2023-04-30T09:21:49;5.50;;;1.33;;
29352;SDS011;16344;50.364;8.944;2023-04-30T09:24:15;4.22;;;0.70;;
29352;SDS011;16344;50.364;8.944;2023-04-30T09:26:41;2.05;;;0.70;;
29352;SDS011;16344;50.364;8.944;2023-04-30T09:29:07;2.25;;;1.63;;
29352;SDS011;16344;50.364;8.944;2023-04-30T09:31:34;5.15;;;1.90;;
29352;SDS011;16344;50.364;8.944;2023-04-30T09:34:00;3.95;;;1.38;;
29352;SDS011;16344;50.364;8.944;2023-04-30T09:36:26;2.97;;;1.40;;
29352;SDS011;16344;50.364;8.944;2023-04-30T09:38:52;2.38;;;1.30;;
29352;SDS011;16344;50.364;8.944;2023-04-30T09:41:21;3.13;;;1.20;;
29352;SDS011;16344;50.364;8.944;2023-04-30T09:43:52;0.98;;;0.50;;
29352;SDS011;16344;50.364;8.944;2023-04-30T09:46:18;3.10;;;0.73;;
29352;SDS011;16344;50.364;8.944;2023-04-30T09:48:45;0.47;;;0.30;;
29352;SDS011;16344;50.364;8.944;2023-04-30T09:51:11;0.40;;;0.40;;
29352;SDS011;16344;50.364;8.944;2023-04-30T09:53:37;0.90;;;0.47;;
29352;SDS011;16344;50.364;8.944;2023-04-30T09:56:06;0.40;;;0.30;;
29352;SDS011;16344;50.364;8.944;2023-04-30T09:58:36;3.40;;;0.90;;
29352;SDS011;16344;50.364;8.944;2023-04-30T10:01:05;4.47;;;0.50;;
29352;SDS011;16344;50.364;8.944;2023-04-30T10:03:35;1.33;;;0.38;;
29352;SDS011;16344;50.364;8.944;2023-04-30T10:06:03;1.33;;;0.35;;
29352;SDS011;16344;50.364;8.944;2023-04-30T10:08:35;2.50;;;0.40;;
29352;SDS011;16344;50.364;8.944;2023-04-30T10:11:06;1.08;;;0.50;;
29352;SDS011;16344;50.364;8.944;2023-04-30T10:13:42;0.63;;;0.45;;
29352;SDS011;16344;50.364;8.944;2023-04-30T10:16:27;0.73;;;0.20;;
29352;SDS011;16344;50.364;8.944;2023-04-30T10:19:45;1.15;;;0.55;;
29352;SDS011;16344;50.364;8.944;2023-04-30T10:21:53;5.28;;;0.47;;
29352;SDS011;16344;50.364;8.944;2023-04-30T10:24:19;2.15;;;1.23;;
29352;SDS011;16344;50.364;8.944;2023-04-30T10:26:45;2.38;;;0.55;;
29352;SDS011;16344;50.364;8.944;2023-04-30T10:29:12;0.45;;;0.38;;
29352;SDS011;16344;50.364;8.944;2023-04-30T10:31:39;4.65;;;0.40;;
29352;SDS011;16344;50.364;8.944;2023-04-30T10:37:20;0.38;;;0.38;;
29352;SDS011;16344;50.364;8.944;2023-04-30T10:40:06;0.45;;;0.40;;
29352;SDS011;16344;50.364;8.944;2023-04-30T10:42:34;0.60;;;0.40;;
29352;SDS011;16344;50.364;8.944;2023-04-30T10:45:01;1.10;;;0.43;;
29352;SDS011;16344;50.364;8.944;2023-04-30T10:47:27;0.93;;;0.35;;
29352;SDS011;16344;50.364;8.944;2023-04-30T10:50:04;1.33;;;0.43;;
29352;SDS011;16344;50.364;8.944;2023-04-30T10:52:32;4.13;;;0.45;;
29352;SDS011;16344;50.364;8.944;2023-04-30T10:54:58;1.25;;;0.60;;
29352;SDS011;16344;50.364;8.944;2023-04-30T10:57:28;1.55;;;0.30;;
29352;SDS011;16344;50.364;8.944;2023-04-30T11:02:41;0.60;;;0.40;;
29352;SDS011;16344;50.364;8.944;2023-04-30T11:07:59;0.20;;;0.20;;
29352;SDS011;16344;50.364;8.944;2023-04-30T11:10:25;1.45;;;0.57;;
29352;SDS011;16344;50.364;8.944;2023-04-30T11:12:53;0.40;;;0.40;;
29352;SDS011;16344;50.364;8.944;2023-04-30T11:15:26;1.88;;;0.47;;
29352;SDS011;16344;50.364;8.944;2023-04-30T11:17:56;1.10;;;0.40;;
29352;SDS011;16344;50.364;8.944;2023-04-30T11:20:23;0.22;;;0.22;;
29352;SDS011;16344;50.364;8.944;2023-04-30T11:23:08;0.38;;;0.38;;
29352;SDS011;16344;50.364;8.944;2023-04-30T11:25:42;0.57;;;0.40;;
29352;SDS011;16344;50.364;8.944;2023-04-30T11:28:16;0.43;;;0.43;;
29352;SDS011;16344;50.364;8.944;2023-04-30T11:30:52;1.25;;;0.47;;
29352;SDS011;16344;50.364;8.944;2023-04-30T11:33:20;0.50;;;0.50;;
29352;SDS011;16344;50.364;8.944;2023-04-30T11:35:47;0.73;;;0.40;;
29352;SDS011;16344;50.364;8.944;2023-04-30T11:38:16;0.40;;;0.40;;
29352;SDS011;16344;50.364;8.944;2023-04-30T11:40:46;1.95;;;0.50;;
29352;SDS011;16344;50.364;8.944;2023-04-30T11:43:32;0.30;;;0.30;;
29352;SDS011;16344;50.364;8.944;2023-04-30T11:46:11;2.85;;;0.40;;
29352;SDS011;16344;50.364;8.944;2023-04-30T11:48:40;0.90;;;0.40;;
29352;SDS011;16344;50.364;8.944;2023-04-30T11:51:17;0.30;;;0.30;;
29352;SDS011;16344;50.364;8.944;2023-04-30T11:53:45;0.30;;;0.20;;
29352;SDS011;16344;50.364;8.944;2023-04-30T11:56:12;1.55;;;0.55;;
29352;SDS011;16344;50.364;8.944;2023-04-30T11:58:38;3.25;;;0.63;;
29352;SDS011;16344;50.364;8.944;2023-04-30T12:01:07;0.35;;;0.35;;
29352;SDS011;16344;50.364;8.944;2023-04-30T12:03:41;3.10;;;0.50;;
29352;SDS011;16344;50.364;8.944;2023-04-30T12:06:11;5.20;;;0.50;;
29352;SDS011;16344;50.364;8.944;2023-04-30T12:08:47;0.75;;;0.50;;
29352;SDS011;16344;50.364;8.944;2023-04-30T12:11:24;0.70;;;0.38;;
29352;SDS011;16344;50.364;8.944;2023-04-30T12:13:56;0.80;;;0.30;;
29352;SDS011;16344;50.364;8.944;2023-04-30T12:16:27;5.88;;;0.40;;
29352;SDS011;16344;50.364;8.944;2023-04-30T12:19:03;2.17;;;0.70;;
29352;SDS011;16344;50.364;8.944;2023-04-30T12:21:28;1.30;;;0.60;;
29352;SDS011;16344;50.364;8.944;2023-04-30T12:23:55;0.43;;;0.43;;
29352;SDS011;16344;50.364;8.944;2023-04-30T12:26:21;0.95;;;0.47;;
29352;SDS011;16344;50.364;8.944;2023-04-30T12:28:47;0.40;;;0.38;;
29352;SDS011;16344;50.364;8.944;2023-04-30T12:31:13;0.30;;;0.30;;
29352;SDS011;16344;50.364;8.944;2023-04-30T12:33:41;4.13;;;0.50;;
29352;SDS011;16344;50.364;8.944;2023-04-30T12:36:10;2.05;;;0.43;;
29352;SDS011;16344;50.364;8.944;2023-04-30T12:38:36;2.67;;;0.30;;
29352;SDS011;16344;50.364;8.944;2023-04-30T12:41:06;0.28;;;0.25;;
29352;SDS011;16344;50.364;8.944;2023-04-30T12:43:37;4.60;;;0.40;;
29352;SDS011;16344;50.364;8.944;2023-04-30T12:46:03;0.47;;;0.30;;
29352;SDS011;16344;50.364;8.944;2023-04-30T12:48:28;0.98;;;0.32;;
29352;SDS011;16344;50.364;8.944;2023-04-30T12:50:55;0.22;;;0.22;;
29352;SDS011;16344;50.364;8.944;2023-04-30T12:53:23;0.98;;;0.40;;
29352;SDS011;16344;50.364;8.944;2023-04-30T12:58:33;3.25;;;0.50;;
29352;SDS011;16344;50.364;8.944;2023-04-30T13:00:59;1.65;;;0.50;;
29352;SDS011;16344;50.364;8.944;2023-04-30T13:03:25;4.00;;;0.68;;
29352;SDS011;16344;50.364;8.944;2023-04-30T13:05:50;2.45;;;0.55;;
29352;SDS011;16344;50.364;8.944;2023-04-30T13:08:17;2.17;;;0.60;;
29352;SDS011;16344;50.364;8.944;2023-04-30T13:10:43;1.98;;;0.40;;
29352;SDS011;16344;50.364;8.944;2023-04-30T13:13:10;1.58;;;0.50;;
29352;SDS011;16344;50.364;8.944;2023-04-30T13:15:37;0.90;;;0.55;;
29352;SDS011;16344;50.364;8.944;2023-04-30T13:18:03;2.70;;;0.52;;
29352;SDS011;16344;50.364;8.944;2023-04-30T13:20:28;2.78;;;0.30;;
29352;SDS011;16344;50.364;8.944;2023-04-30T13:22:54;1.05;;;0.50;;
29352;SDS011;16344;50.364;8.944;2023-04-30T13:25:19;0.38;;;0.38;;
29352;SDS011;16344;50.364;8.944;2023-04-30T13:27:46;0.75;;;0.60;;
29352;SDS011;16344;50.364;8.944;2023-04-30T13:30:11;1.98;;;0.50;;
29352;SDS011;16344;50.364;8.944;2023-04-30T13:32:37;1.00;;;0.50;;
29352;SDS011;16344;50.364;8.944;2023-04-30T13:35:02;1.83;;;0.38;;
29352;SDS011;16344;50.364;8.944;2023-04-30T13:37:28;0.73;;;0.40;;
29352;SDS011;16344;50.364;8.944;2023-04-30T13:39:56;1.27;;;0.55;;
29352;SDS011;16344;50.364;8.944;2023-04-30T13:42:24;0.65;;;0.50;;
29352;SDS011;16344;50.364;8.944;2023-04-30T13:44:50;6.22;;;0.68;;
29352;SDS011;16344;50.364;8.944;2023-04-30T13:47:16;0.45;;;0.35;;
29352;SDS011;16344;50.364;8.944;2023-04-30T13:49:42;2.22;;;0.40;;
29352;SDS011;16344;50.364;8.944;2023-04-30T13:52:07;2.10;;;0.50;;
29352;SDS011;16344;50.364;8.944;2023-04-30T13:54:33;0.73;;;0.32;;
29352;SDS011;16344;50.364;8.944;2023-04-30T13:56:58;1.55;;;0.38;;
29352;SDS011;16344;50.364;8.944;2023-04-30T13:59:24;0.43;;;0.43;;
29352;SDS011;16344;50.364;8.944;2023-04-30T14:01:49;1.23;;;0.45;;
29352;SDS011;16344;50.364;8.944;2023-04-30T14:04:15;1.55;;;0.60;;
29352;SDS011;16344;50.364;8.944;2023-04-30T14:06:41;0.93;;;0.52;;
29352;SDS011;16344;50.364;8.944;2023-04-30T14:09:07;2.72;;;0.55;;
29352;SDS011;16344;50.364;8.944;2023-04-30T14:11:32;1.02;;;0.50;;
29352;SDS011;16344;50.364;8.944;2023-04-30T14:13:58;3.03;;;0.40;;
29352;SDS011;16344;50.364;8.944;2023-04-30T14:16:24;0.50;;;0.40;;
29352;SDS011;16344;50.364;8.944;2023-04-30T14:18:49;0.47;;;0.47;;
29352;SDS011;16344;50.364;8.944;2023-04-30T14:21:15;0.65;;;0.40;;
29352;SDS011;16344;50.364;8.944;2023-04-30T14:23:42;1.35;;;0.43;;
29352;SDS011;16344;50.364;8.944;2023-04-30T14:26:10;0.75;;;0.50;;
29352;SDS011;16344;50.364;8.944;2023-04-30T14:28:36;6.43;;;1.02;;
29352;SDS011;16344;50.364;8.944;2023-04-30T14:31:01;4.68;;;0.70;;
29352;SDS011;16344;50.364;8.944;2023-04-30T14:33:27;0.30;;;0.30;;
29352;SDS011;16344;50.364;8.944;2023-04-30T14:35:53;2.03;;;0.50;;
29352;SDS011;16344;50.364;8.944;2023-04-30T14:38:19;3.00;;;0.60;;
29352;SDS011;16344;50.364;8.944;2023-04-30T14:40:44;0.93;;;0.60;;
29352;SDS011;16344;50.364;8.944;2023-04-30T14:43:10;1.10;;;0.70;;
29352;SDS011;16344;50.364;8.944;2023-04-30T14:45:35;2.67;;;0.70;;
29352;SDS011;16344;50.364;8.944;2023-04-30T14:48:02;3.03;;;0.70;;
29352;SDS011;16344;50.364;8.944;2023-04-30T14:50:28;7.45;;;0.57;;
29352;SDS011;16344;50.364;8.944;2023-04-30T14:52:53;1.15;;;0.73;;
29352;SDS011;16344;50.364;8.944;2023-04-30T14:55:19;0.50;;;0.50;;
29352;SDS011;16344;50.364;8.944;2023-04-30T14:57:44;4.13;;;0.95;;
29352;SDS011;16344;50.364;8.944;2023-04-30T15:00:10;3.05;;;1.27;;